Time;durP1;ratioP1;P1;durP2;ratioP2;P2;SDS_P1;SDS_P2;PMS_P1;PMS_P2;Temp;Humidity;BMP_temperature;BMP_pressure;BME280_temperature;BME280_humidity;BME280_pressure;Samples;Min_cycle;Max_cycle;Signal;HPM_P1;HPM_P2
2021/03/10 00:02:11;;;;;;;2.63;2.42;;;;;;;3.51;68.24;93182.47;5114925;28;20026;-45
2021/03/10 00:04:36;;;;;;;2.60;2.47;;;;;;;3.58;68.02;93184.66;5115081;28;20152;-45
2021/03/10 00:07:02;;;;;;;5.43;2.70;;;;;;;3.48;68.46;93169.09;5114861;28;20396;-46
2021/03/10 00:09:27;;;;;;;7.95;4.13;;;;;;;3.53;68.00;93168.34;5114827;28;20043;-45
2021/03/10 00:11:53;;;;;;;7.90;4.45;;;;;;;3.57;68.03;93166.06;5114921;28;20027;-45
2021/03/10 00:14:18;;;;;;;5.88;3.33;;;;;;;3.69;66.62;93159.22;5114722;28;20411;-45
2021/03/10 00:16:44;;;;;;;7.18;3.42;;;;;;;3.49;68.11;93165.13;5114803;28;20557;-44
2021/03/10 00:19:09;;;;;;;2.63;1.90;;;;;;;3.44;68.00;93160.47;5114405;28;20025;-44
2021/03/10 00:21:35;;;;;;;6.35;4.15;;;;;;;3.47;68.32;93159.44;5114229;28;20020;-45
2021/03/10 00:24:00;;;;;;;3.88;3.00;;;;;;;3.42;68.71;93144.59;5114559;28;20024;-44
2021/03/10 00:26:25;;;;;;;4.47;2.75;;;;;;;3.50;68.60;93150.25;5114515;28;20476;-45
2021/03/10 00:28:51;;;;;;;9.98;4.10;;;;;;;3.53;69.33;93141.03;5114600;28;20027;-44
2021/03/10 00:31:16;;;;;;;3.60;3.30;;;;;;;3.64;67.92;93140.91;5114449;28;20065;-44
2021/03/10 00:33:42;;;;;;;4.15;3.42;;;;;;;3.76;67.54;93147.75;5114373;28;20404;-47
2021/03/10 00:36:07;;;;;;;7.57;3.58;;;;;;;3.67;67.91;93134.44;5114270;28;20032;-44
2021/03/10 00:38:33;;;;;;;3.25;2.92;;;;;;;3.75;67.54;93130.63;5114203;28;20036;-44
2021/03/10 00:40:58;;;;;;;6.80;4.13;;;;;;;3.67;67.46;93116.06;5114394;28;20028;-45
2021/03/10 00:43:24;;;;;;;4.93;4.07;;;;;;;3.79;67.35;93127.59;5112885;28;20031;-45
2021/03/10 00:45:50;;;;;;;5.28;2.97;;;;;;;3.68;67.13;93119.53;5113679;28;20043;-47
2021/03/10 00:48:15;;;;;;;5.38;3.88;;;;;;;3.48;68.76;93120.00;5114118;28;20034;-46
2021/03/10 00:50:40;;;;;;;4.72;2.85;;;;;;;3.53;68.59;93130.84;5113960;28;20407;-47
2021/03/10 00:53:06;;;;;;;2.20;2.05;;;;;;;3.69;67.83;93115.56;5113931;28;20030;-44
2021/03/10 00:55:31;;;;;;;3.05;1.85;;;;;;;3.60;68.42;93110.44;5113864;28;20028;-45
2021/03/10 00:57:57;;;;;;;2.60;1.55;;;;;;;3.18;69.59;93117.28;5113839;28;20028;-44
2021/03/10 01:00:23;;;;;;;3.53;3.05;;;;;;;3.36;68.89;93104.94;5113827;28;20024;-47
2021/03/10 01:02:49;;;;;;;4.55;3.20;;;;;;;3.26;68.87;93101.09;5113875;28;20420;-44
2021/03/10 01:05:14;;;;;;;3.05;2.53;;;;;;;3.08;68.58;93094.28;5113776;28;20028;-45
2021/03/10 01:07:40;;;;;;;5.80;3.58;;;;;;;3.25;68.14;93091.44;5113979;28;20019;-45
2021/03/10 01:10:09;;;;;;;3.47;2.95;;;;;;;3.42;67.78;93086.56;5113844;28;20495;-44
2021/03/10 01:12:36;;;;;;;4.60;2.55;;;;;;;3.29;68.29;93083.72;5113600;28;20416;-44
2021/03/10 01:15:10;;;;;;;4.15;3.17;;;;;;;3.35;67.40;93070.75;5095415;28;20102;-45
2021/03/10 01:17:35;;;;;;;2.13;1.58;;;;;;;3.39;68.20;93071.94;5113471;28;20051;-45
2021/03/10 01:20:08;;;;;;;3.13;2.13;;;;;;;3.48;67.99;93068.13;5113467;28;20054;-47
2021/03/10 01:22:33;;;;;;;5.45;3.80;;;;;;;3.43;68.23;93075.13;5113455;28;20031;-48
2021/03/10 01:24:59;;;;;;;4.88;2.85;;;;;;;3.31;68.83;93065.59;5113305;28;20023;-45
2021/03/10 01:27:24;;;;;;;9.43;2.90;;;;;;;3.22;69.76;93046.81;5113608;28;20012;-45
2021/03/10 01:29:50;;;;;;;3.63;1.90;;;;;;;3.33;70.15;93062.34;5113286;28;20495;-45
2021/03/10 01:32:15;;;;;;;13.60;2.40;;;;;;;3.45;70.18;93067.16;5113361;28;20039;-44
2021/03/10 01:34:41;;;;;;;8.98;4.20;;;;;;;3.33;70.24;93041.25;5113287;28;20080;-47
2021/03/10 01:37:06;;;;;;;3.38;2.80;;;;;;;3.55;70.00;93060.09;5113147;28;20377;-44
2021/03/10 01:39:31;;;;;;;5.20;2.08;;;;;;;3.55;70.40;93056.66;5113028;28;20028;-46
2021/03/10 01:41:57;;;;;;;2.00;1.80;;;;;;;3.50;70.97;93054.72;5113000;28;20464;-45
2021/03/10 01:44:23;;;;;;;5.25;2.05;;;;;;;3.43;71.32;93058.75;5112714;28;20024;-47
2021/03/10 01:46:49;;;;;;;2.33;2.03;;;;;;;3.49;71.94;93058.69;5113105;28;20149;-47
2021/03/10 01:49:14;;;;;;;2.28;2.13;;;;;;;3.50;70.92;93050.00;5112885;28;20404;-45
2021/03/10 01:51:39;;;;;;;1.95;1.67;;;;;;;3.38;71.87;93037.72;5112824;28;20116;-47
2021/03/10 01:54:05;;;;;;;4.25;2.38;;;;;;;3.37;71.44;93046.41;5112753;28;20065;-45
2021/03/10 01:56:30;;;;;;;1.33;1.23;;;;;;;3.28;73.07;93042.03;5094512;28;20024;-48
2021/03/10 01:58:56;;;;;;;2.92;2.63;;;;;;;3.33;72.92;93045.97;5112621;28;20024;-45
2021/03/10 02:01:22;;;;;;;2.65;2.45;;;;;;;3.29;72.89;93029.88;5094670;28;20035;-44
2021/03/10 02:03:48;;;;;;;5.35;2.58;;;;;;;3.18;73.92;93019.09;5112675;28;20055;-43
2021/03/10 02:06:34;;;;;;;2.53;2.15;;;;;;;3.33;73.56;93029.59;5112462;28;20487;-45
2021/03/10 02:09:06;;;;;;;2.58;2.38;;;;;;;3.25;74.68;93029.41;5094431;28;20034;-46
2021/03/10 02:11:33;;;;;;;3.05;2.75;;;;;;;3.16;74.63;93029.78;5112467;28;20042;-44
2021/03/10 02:14:17;;;;;;;3.80;2.70;;;;;;;3.22;75.20;93027.72;5094358;28;20023;-46
2021/03/10 02:17:08;;;;;;;3.85;3.47;;;;;;;3.21;74.39;93031.69;5112346;28;20034;-47
2021/03/10 02:19:45;;;;;;;2.65;2.30;;;;;;;3.26;74.63;93024.69;5112657;28;20023;-43
2021/03/10 02:22:15;;;;;;;4.22;2.80;;;;;;;3.28;75.29;93027.66;5094279;28;20479;-46
2021/03/10 02:25:03;;;;;;;2.75;2.53;;;;;;;3.30;74.89;93027.88;5094371;28;20031;-45
2021/03/10 02:27:33;;;;;;;2.75;2.55;;;;;;;3.33;74.81;93018.69;5112327;28;20023;-44
2021/03/10 02:30:02;;;;;;;3.20;1.80;;;;;;;3.31;74.61;93019.19;5112578;28;20027;-44
2021/03/10 02:32:28;;;;;;;5.07;2.70;;;;;;;3.29;73.98;92999.13;5112339;28;20031;-46
2021/03/10 02:34:53;;;;;;;3.47;3.17;;;;;;;3.12;74.63;93012.94;5111918;28;20476;-46
2021/03/10 02:37:19;;;;;;;1.38;1.27;;;;;;;3.20;75.20;93013.13;5112169;28;20034;-44
2021/03/10 02:39:44;;;;;;;2.47;2.10;;;;;;;3.23;74.54;93003.91;5112031;28;20462;-46
2021/03/10 02:42:10;;;;;;;8.15;3.45;;;;;;;3.21;73.61;93003.66;5093866;28;20027;-48
2021/03/10 02:44:36;;;;;;;1.70;1.60;;;;;;;3.06;74.83;92999.34;5089846;28;20083;-45
2021/03/10 02:47:01;;;;;;;2.45;2.25;;;;;;;3.00;75.22;93003.38;5090523;28;20413;-45
2021/03/10 02:49:27;;;;;;;3.92;3.47;;;;;;;3.11;75.33;92997.09;5090501;28;20035;-47
2021/03/10 02:51:55;;;;;;;2.65;1.27;;;;;;;3.24;74.41;93006.13;5090553;28;20030;-44
2021/03/10 02:54:20;;;;;;;3.75;3.15;;;;;;;3.30;74.23;92998.63;5090386;28;20545;-44
2021/03/10 02:56:46;;;;;;;6.50;3.15;;;;;;;3.26;75.01;93003.63;5090304;28;20024;-45
2021/03/10 02:59:12;;;;;;;3.17;2.63;;;;;;;3.26;75.73;92997.41;5091731;28;20077;-46
2021/03/10 03:04:41;;;;;;;4.28;1.92;;;;;;;3.18;75.69;92996.53;5091913;28;20031;-47
2021/03/10 03:07:07;;;;;;;2.95;2.13;;;;;;;3.19;75.33;92987.06;5091514;28;20024;-45
2021/03/10 03:09:33;;;;;;;2.33;1.98;;;;;;;3.13;75.50;92981.69;5091679;28;20035;-46
2021/03/10 03:11:59;;;;;;;3.13;2.25;;;;;;;2.98;76.13;92982.09;5090331;28;20401;-45
2021/03/10 03:14:26;;;;;;;5.15;2.92;;;;;;;2.95;76.50;92982.38;5090234;28;20027;-46
2021/03/10 03:16:52;;;;;;;3.45;1.83;;;;;;;3.04;75.99;92971.88;5090263;28;20028;-44
2021/03/10 03:19:18;;;;;;;4.20;2.63;;;;;;;3.06;76.30;92979.53;5090175;28;20035;-46
2021/03/10 03:21:43;;;;;;;1.30;1.20;;;;;;;3.03;76.52;92975.81;5091379;28;20024;-45
2021/03/10 03:24:09;;;;;;;5.95;3.22;;;;;;;2.97;76.39;92977.13;5091475;28;20028;-45
2021/03/10 03:26:35;;;;;;;6.57;2.90;;;;;;;2.94;75.95;92964.53;5090163;28;20062;-46
2021/03/10 03:29:01;;;;;;;9.55;2.42;;;;;;;2.84;76.95;92975.03;5091448;28;20476;-45
2021/03/10 03:31:27;;;;;;;4.20;1.27;;;;;;;2.79;76.79;92969.66;5088515;28;20416;-48
2021/03/10 03:33:52;;;;;;;5.28;2.95;;;;;;;2.87;76.95;92974.03;5090220;28;20040;-46
2021/03/10 03:36:18;;;;;;;2.30;1.98;;;;;;;2.91;76.48;92965.56;5090126;28;20420;-44
2021/03/10 03:38:44;;;;;;;13.35;2.40;;;;;;;2.90;76.71;92961.34;5091202;28;20028;-44
2021/03/10 03:41:10;;;;;;;4.70;3.75;;;;;;;3.00;75.79;92965.22;5091137;28;20028;-44
2021/03/10 03:43:36;;;;;;;2.80;1.52;;;;;;;2.89;75.93;92955.16;5091152;28;20583;-44
2021/03/10 03:46:04;;;;;;;3.42;3.13;;;;;;;2.74;76.95;92927.56;5089872;28;20126;-44
2021/03/10 03:48:30;;;;;;;5.85;2.00;;;;;;;2.75;77.05;92945.38;5091001;28;20115;-44
2021/03/10 03:50:56;;;;;;;4.07;2.90;;;;;;;2.67;77.50;92938.28;5091252;28;20032;-45
2021/03/10 03:53:21;;;;;;;6.35;2.08;;;;;;;2.63;78.04;92935.84;5090078;28;20081;-44
2021/03/10 03:55:47;;;;;;;2.40;1.75;;;;;;;2.68;77.68;92940.50;5092960;28;20031;-46
2021/03/10 03:58:13;;;;;;;8.60;3.20;;;;;;;2.69;77.96;92941.97;5094908;28;20039;-46
2021/03/10 04:00:38;;;;;;;1.15;1.13;;;;;;;2.69;78.27;92950.16;5094726;28;20028;-43
2021/03/10 04:03:04;;;;;;;2.60;2.17;;;;;;;2.66;77.85;92947.72;5094573;28;20028;-45
2021/03/10 04:05:29;;;;;;;4.18;1.67;;;;;;;2.81;77.16;92948.06;5094612;28;20447;-44
2021/03/10 04:08:00;;;;;;;6.80;2.10;;;;;;;2.60;77.65;92941.59;5094760;28;20051;-44
2021/03/10 04:10:29;;;;;;;5.30;4.60;;;;;;;2.60;78.51;92952.47;5094513;28;20031;-45
2021/03/10 04:12:56;;;;;;;6.68;2.90;;;;;;;2.65;79.22;92952.41;5094496;28;20514;-44
2021/03/10 04:15:22;;;;;;;2.88;2.33;;;;;;;2.67;78.97;92954.63;5094219;28;20035;-45
2021/03/10 04:17:48;;;;;;;2.63;1.85;;;;;;;2.69;78.33;92958.31;5094400;28;20032;-46
2021/03/10 04:20:16;;;;;;;9.73;3.17;;;;;;;2.59;78.82;92959.16;5094313;28;20562;-45
2021/03/10 04:22:43;;;;;;;7.13;3.22;;;;;;;2.59;79.15;92961.91;5094265;28;20031;-45
2021/03/10 04:25:10;;;;;;;3.45;2.25;;;;;;;2.64;79.23;92952.94;5094474;28;20106;-45
2021/03/10 04:27:36;;;;;;;3.45;2.95;;;;;;;2.65;79.59;92960.59;5094036;28;20020;-44
2021/03/10 04:30:02;;;;;;;3.75;2.28;;;;;;;2.70;78.57;92957.09;5094097;28;20491;-46
2021/03/10 04:32:27;;;;;;;2.90;2.60;;;;;;;2.72;78.14;92959.28;5094154;28;20492;-46
2021/03/10 04:34:53;;;;;;;3.20;2.92;;;;;;;2.63;78.25;92948.72;5093971;28;20027;-45
2021/03/10 04:37:18;;;;;;;5.32;3.63;;;;;;;2.58;78.88;92952.97;5093826;28;20024;-45
2021/03/10 04:39:44;;;;;;;5.70;3.03;;;;;;;2.76;79.26;92955.03;5094048;28;20027;-45
2021/03/10 04:42:09;;;;;;;2.55;2.10;;;;;;;2.76;78.76;92946.88;5093784;28;20085;-44
2021/03/10 04:44:35;;;;;;;2.75;2.30;;;;;;;2.71;79.03;92946.91;5097970;28;20043;-46
2021/03/10 04:47:00;;;;;;;3.70;3.08;;;;;;;2.77;77.91;92956.50;5114350;28;20499;-45
2021/03/10 04:49:26;;;;;;;3.45;2.67;;;;;;;2.77;78.33;92944.88;5114059;28;20412;-45
2021/03/10 04:51:51;;;;;;;3.20;2.13;;;;;;;2.95;78.51;92950.38;5113939;28;20034;-44
2021/03/10 04:54:17;;;;;;;4.35;2.78;;;;;;;3.03;77.79;92945.13;5113992;28;20024;-45
2021/03/10 04:56:42;;;;;;;4.40;3.55;;;;;;;3.06;76.91;92944.06;5113965;28;20091;-44
2021/03/10 04:59:07;;;;;;;2.50;2.35;;;;;;;2.80;77.14;92941.13;5114072;28;20027;-45
2021/03/10 05:01:33;;;;;;;5.22;2.90;;;;;;;2.82;78.28;92949.53;5112592;28;20023;-44
2021/03/10 05:03:58;;;;;;;3.72;2.42;;;;;;;2.75;78.36;92955.56;5113373;28;20464;-44
2021/03/10 05:06:23;;;;;;;2.30;2.20;;;;;;;2.75;78.24;92942.66;5113334;28;20016;-44
2021/03/10 05:08:49;;;;;;;5.40;2.83;;;;;;;2.76;77.77;92935.97;5113674;28;20024;-43
2021/03/10 05:11:14;;;;;;;1.95;1.77;;;;;;;2.76;78.18;92935.97;5113814;28;20022;-43
2021/03/10 05:13:40;;;;;;;4.03;2.35;;;;;;;2.72;78.41;92935.50;5113882;28;20102;-45
2021/03/10 05:16:05;;;;;;;4.13;1.70;;;;;;;2.68;79.08;92926.13;5113573;28;20024;-44
2021/03/10 05:18:31;;;;;;;6.93;2.83;;;;;;;2.67;79.16;92943.72;5095301;28;20093;-45
2021/03/10 05:20:56;;;;;;;2.95;2.63;;;;;;;2.71;79.10;92939.47;5113609;28;20057;-44
2021/03/10 05:23:21;;;;;;;5.10;3.70;;;;;;;2.72;78.94;92945.66;5113545;28;20031;-45
2021/03/10 05:25:47;;;;;;;5.05;2.92;;;;;;;2.74;79.37;92945.91;5113527;28;20494;-44
2021/03/10 05:28:12;;;;;;;5.63;2.78;;;;;;;2.67;79.36;92939.03;5113338;28;20549;-44
2021/03/10 05:30:38;;;;;;;11.90;2.63;;;;;;;2.73;78.89;92949.88;5113292;28;20027;-44
2021/03/10 05:33:03;;;;;;;5.60;2.95;;;;;;;2.76;78.80;92952.31;5113304;28;20019;-45
2021/03/10 05:35:29;;;;;;;6.43;3.65;;;;;;;2.71;78.31;92947.66;5113095;28;20027;-45
2021/03/10 05:37:54;;;;;;;6.22;2.53;;;;;;;2.54;78.46;92949.78;5113160;28;20031;-45
2021/03/10 05:40:20;;;;;;;3.17;1.70;;;;;;;2.56;78.75;92949.28;5113170;28;20020;-45
2021/03/10 05:42:46;;;;;;;2.65;2.38;;;;;;;2.43;79.60;92947.16;5113104;28;20031;-44
2021/03/10 05:45:13;;;;;;;2.92;2.38;;;;;;;2.45;79.20;92939.22;5094655;28;20492;-44
2021/03/10 05:47:38;;;;;;;10.18;2.20;;;;;;;2.40;79.58;92944.72;5112926;28;20068;-46
2021/03/10 05:50:05;;;;;;;2.15;2.05;;;;;;;2.36;80.39;92944.97;5112814;28;20028;-47
2021/03/10 05:52:32;;;;;;;1.92;1.83;;;;;;;2.41;79.52;92949.66;5112844;28;20544;-44
2021/03/10 05:54:59;;;;;;;2.20;2.00;;;;;;;2.25;79.91;92948.53;5112584;28;20023;-45
2021/03/10 05:57:24;;;;;;;9.30;4.47;;;;;;;2.37;80.48;92962.81;5094529;28;20078;-44
2021/03/10 05:59:50;;;;;;;14.75;2.33;;;;;;;2.28;80.10;92972.06;5112799;28;20039;-45
2021/03/10 06:02:16;;;;;;;4.13;2.72;;;;;;;2.39;80.33;92962.31;5112659;28;20019;-44
2021/03/10 06:04:42;;;;;;;7.63;2.95;;;;;;;2.43;80.16;92976.38;5112874;28;20119;-47
2021/03/10 06:07:21;;;;;;;2.25;2.13;;;;;;;2.52;79.82;92959.72;5112537;28;20492;-43
2021/03/10 06:09:59;;;;;;;3.72;3.42;;;;;;;2.55;78.44;92962.19;5112644;28;20028;-44
2021/03/10 06:12:36;;;;;;;3.65;2.40;;;;;;;2.43;79.07;92960.03;5112501;28;20031;-46
2021/03/10 06:15:01;;;;;;;2.55;2.08;;;;;;;2.42;79.72;92962.03;5112583;28;20020;-45
2021/03/10 06:17:27;;;;;;;2.55;2.17;;;;;;;2.54;80.15;92963.41;5111944;28;20028;-44
2021/03/10 06:19:52;;;;;;;2.88;2.55;;;;;;;2.54;79.45;92960.69;5112321;28;20031;-45
2021/03/10 06:22:18;;;;;;;7.70;2.72;;;;;;;2.57;79.40;92959.69;5112309;28;20027;-45
2021/03/10 06:24:44;;;;;;;2.53;2.13;;;;;;;2.49;79.87;92947.84;5112316;28;20105;-44
2021/03/10 06:27:10;;;;;;;4.43;2.47;;;;;;;2.66;80.23;92975.72;5112241;28;20087;-45
2021/03/10 06:29:36;;;;;;;5.00;3.30;;;;;;;2.66;79.12;92959.34;5094180;28;20389;-45
2021/03/10 06:32:09;;;;;;;3.90;2.03;;;;;;;2.82;79.39;92952.25;5112250;28;20110;-43
2021/03/10 06:34:49;;;;;;;5.82;3.35;;;;;;;2.75;79.66;92958.28;5112372;28;20064;-46
2021/03/10 06:37:31;;;;;;;3.80;3.53;;;;;;;2.88;78.44;92961.13;5112162;28;20552;-45
2021/03/10 06:40:10;;;;;;;2.83;2.50;;;;;;;3.01;77.54;92950.34;5112092;28;20066;-44
2021/03/10 06:42:36;;;;;;;9.80;2.90;;;;;;;3.03;77.27;92956.75;5112049;28;20027;-43
2021/03/10 06:45:03;;;;;;;2.00;1.80;;;;;;;2.91;77.30;92957.38;5110436;28;20104;-45
2021/03/10 06:47:36;;;;;;;2.15;1.98;;;;;;;2.88;78.25;92945.50;5111921;28;20446;-48
2021/03/10 06:50:03;;;;;;;2.08;1.98;;;;;;;2.95;77.84;92950.38;5112155;28;20056;-45
2021/03/10 06:52:28;;;;;;;1.70;1.60;;;;;;;2.89;77.72;92968.78;5112033;28;20032;-43
2021/03/10 06:54:58;;;;;;;2.90;1.27;;;;;;;2.83;78.02;92949.03;5112023;28;20039;-46
2021/03/10 06:57:24;;;;;;;1.50;1.40;;;;;;;3.03;78.69;92969.66;5093986;28;20051;-45
2021/03/10 06:59:51;;;;;;;8.00;3.28;;;;;;;3.15;78.44;92971.00;5112036;28;20034;-46
2021/03/10 07:02:23;;;;;;;3.40;2.40;;;;;;;3.03;79.56;92969.66;5111791;28;20126;-44
2021/03/10 07:04:55;;;;;;;6.03;5.43;;;;;;;3.06;79.32;92974.06;5112025;28;20039;-44
2021/03/10 07:07:22;;;;;;;3.03;2.47;;;;;;;2.92;79.49;92970.47;5112141;28;20437;-48
2021/03/10 07:09:48;;;;;;;7.22;1.65;;;;;;;2.89;79.25;92981.69;5111648;28;20446;-44
2021/03/10 07:12:15;;;;;;;3.63;3.20;;;;;;;3.01;79.19;92978.34;5111918;28;20031;-45
2021/03/10 07:14:40;;;;;;;2.97;2.33;;;;;;;3.10;78.73;92973.81;5111835;28;20039;-44
2021/03/10 07:17:07;;;;;;;1.33;1.20;;;;;;;3.24;77.82;92984.31;5111757;28;20411;-44
2021/03/10 07:19:32;;;;;;;2.35;1.95;;;;;;;3.23;77.83;92974.63;5111680;28;20030;-47
2021/03/10 07:22:04;;;;;;;2.40;2.30;;;;;;;3.36;76.20;92982.16;5111671;28;20110;-44
2021/03/10 07:24:34;;;;;;;2.38;1.50;;;;;;;3.11;76.42;92983.44;5111589;28;20022;-44
2021/03/10 07:27:01;;;;;;;1.45;1.33;;;;;;;3.13;78.18;92972.75;5093539;28;20484;-45
2021/03/10 07:29:27;;;;;;;5.63;3.97;;;;;;;3.17;78.69;92968.50;5113372;28;20020;-44
2021/03/10 07:32:05;;;;;;;3.88;2.85;;;;;;;3.20;78.36;92972.19;5115642;28;20088;-45
2021/03/10 07:34:30;;;;;;;2.75;2.35;;;;;;;3.15;78.85;92970.25;5115583;28;20037;-46
2021/03/10 07:36:56;;;;;;;6.18;3.42;;;;;;;3.27;78.27;92975.06;5115563;28;20036;-43
2021/03/10 07:39:24;;;;;;;8.10;2.17;;;;;;;3.26;77.71;92975.59;5115376;28;20123;-44
2021/03/10 07:41:50;;;;;;;1.95;1.83;;;;;;;3.31;78.01;92977.53;5115423;28;20459;-45
2021/03/10 07:44:25;;;;;;;3.08;1.80;;;;;;;3.30;77.23;92981.50;5115151;28;20032;-45
2021/03/10 07:47:06;;;;;;;2.88;1.90;;;;;;;3.41;77.78;92982.13;5115306;28;20484;-44
2021/03/10 07:49:31;;;;;;;1.98;1.88;;;;;;;3.21;77.24;92960.75;5115310;28;20027;-47
2021/03/10 07:52:11;;;;;;;3.08;2.33;;;;;;;3.31;76.95;92967.38;5114857;28;20407;-45
2021/03/10 07:54:38;;;;;;;2.03;1.85;;;;;;;3.24;77.67;92956.28;5114029;28;20027;-44
2021/03/10 07:57:03;;;;;;;2.72;2.25;;;;;;;3.24;77.61;92973.38;5115044;28;20473;-46
2021/03/10 07:59:29;;;;;;;1.65;1.50;;;;;;;3.21;77.80;92963.50;5115093;28;20024;-47
2021/03/10 08:02:08;;;;;;;1.60;1.40;;;;;;;3.11;77.54;92958.91;5115096;28;20467;-43
2021/03/10 08:04:34;;;;;;;1.38;1.10;;;;;;;2.95;77.69;92947.66;5115073;28;20027;-43
2021/03/10 08:07:00;;;;;;;1.02;1.02;;;;;;;3.04;77.51;92958.22;5115053;28;20036;-44
2021/03/10 08:09:27;;;;;;;2.80;2.17;;;;;;;3.04;78.63;92955.50;5114989;28;20031;-48
2021/03/10 08:12:12;;;;;;;0.90;0.90;;;;;;;3.17;78.10;92949.41;5114951;28;20047;-44
2021/03/10 08:14:38;;;;;;;3.67;1.35;;;;;;;3.13;78.31;92957.16;5114752;28;20028;-46
2021/03/10 08:17:05;;;;;;;1.25;1.13;;;;;;;3.11;77.57;92943.28;5114717;28;20444;-44
2021/03/10 08:19:31;;;;;;;1.70;1.58;;;;;;;3.19;77.84;92944.19;5114615;28;20054;-45
2021/03/10 08:21:56;;;;;;;1.70;0.93;;;;;;;3.23;77.69;92943.91;5114656;28;20043;-45
2021/03/10 08:24:23;;;;;;;2.20;1.50;;;;;;;3.19;78.51;92944.19;5114613;28;20400;-45
2021/03/10 08:26:54;;;;;;;3.10;2.53;;;;;;;3.22;78.84;92945.16;5114523;28;20213;-45
2021/03/10 08:29:20;;;;;;;1.58;1.58;;;;;;;3.24;78.99;92945.38;5114504;28;20038;-44
2021/03/10 08:31:48;;;;;;;1.50;1.17;;;;;;;3.29;78.27;92939.84;5114484;28;20027;-45
2021/03/10 08:34:15;;;;;;;3.70;1.92;;;;;;;3.33;78.00;92948.50;5114388;28;20034;-43
2021/03/10 08:36:43;;;;;;;1.40;1.30;;;;;;;3.30;78.32;92956.94;5114320;28;20524;-44
2021/03/10 08:39:13;;;;;;;2.30;2.17;;;;;;;3.10;78.54;92938.34;5114391;28;20118;-44
2021/03/10 08:41:53;;;;;;;4.40;2.10;;;;;;;3.26;78.03;92954.53;5113554;28;20023;-43
2021/03/10 08:44:21;;;;;;;5.00;1.92;;;;;;;3.29;78.50;92961.66;5114056;28;20102;-45
2021/03/10 08:46:48;;;;;;;3.38;3.03;;;;;;;3.30;77.86;92973.31;5114241;28;20097;-43
2021/03/10 08:49:32;;;;;;;3.08;1.42;;;;;;;3.26;78.02;92973.63;5114117;28;20503;-44
2021/03/10 08:52:14;;;;;;;2.97;2.03;;;;;;;3.19;78.89;92976.91;5114175;28;20030;-44
2021/03/10 08:54:52;;;;;;;2.25;1.77;;;;;;;3.15;79.31;92957.38;5114080;28;20032;-44
2021/03/10 08:57:20;;;;;;;1.67;1.58;;;;;;;3.18;79.32;92961.06;5114003;28;20036;-44
2021/03/10 08:59:46;;;;;;;4.15;2.28;;;;;;;3.29;78.56;92974.59;5113929;28;20023;-43
2021/03/10 09:02:12;;;;;;;0.80;0.80;;;;;;;3.23;78.53;92971.19;5113909;28;20068;-44
2021/03/10 09:04:44;;;;;;;2.25;2.05;;;;;;;3.27;77.92;92969.63;5113865;28;20110;-45
2021/03/10 09:07:10;;;;;;;0.90;0.90;;;;;;;3.28;77.39;92962.94;5095713;28;20016;-43
2021/03/10 09:09:35;;;;;;;1.05;1.05;;;;;;;3.35;77.11;92954.16;5113777;28;20019;-43
2021/03/10 09:12:01;;;;;;;0.95;0.95;;;;;;;3.21;77.34;92940.94;5113815;28;20106;-43
2021/03/10 09:14:26;;;;;;;0.77;0.57;;;;;;;3.50;76.37;92945.56;5095258;28;20507;-45
2021/03/10 09:16:59;;;;;;;1.58;1.48;;;;;;;3.33;75.89;92942.28;5095452;28;20023;-43
2021/03/10 09:19:29;;;;;;;1.38;1.23;;;;;;;3.42;76.62;92941.94;5113562;28;20029;-45
2021/03/10 09:22:27;;;;;;;3.72;1.67;;;;;;;3.34;77.12;92944.50;5113485;28;20038;-43
2021/03/10 09:24:57;;;;;;;1.38;0.77;;;;;;;3.39;77.83;92940.22;5057578;28;20036;-43
2021/03/10 09:27:30;;;;;;;1.25;1.00;;;;;;;3.33;77.20;92942.28;5113360;28;20106;-44
2021/03/10 09:29:57;;;;;;;2.30;1.55;;;;;;;3.26;78.26;92942.88;5113451;28;20076;-44
2021/03/10 09:32:24;;;;;;;1.38;1.27;;;;;;;3.49;77.52;92944.81;5113207;28;20038;-43
2021/03/10 09:34:54;;;;;;;8.20;2.55;;;;;;;3.53;77.37;92942.53;5111862;28;20046;-44
2021/03/10 09:37:24;;;;;;;2.33;1.10;;;;;;;3.37;76.27;92940.00;5113126;28;20054;-43
2021/03/10 09:39:54;;;;;;;2.30;2.20;;;;;;;3.42;76.63;92939.91;5113149;28;20106;-43
2021/03/10 09:42:21;;;;;;;2.58;2.25;;;;;;;3.28;77.91;92934.91;5113152;28;20045;-44
2021/03/10 09:44:46;;;;;;;4.38;2.50;;;;;;;3.31;77.83;92950.25;5113104;28;20439;-44
2021/03/10 09:47:23;;;;;;;1.58;1.45;;;;;;;3.42;77.57;92939.91;5112965;28;20028;-44
2021/03/10 09:49:56;;;;;;;0.50;0.50;;;;;;;3.44;76.66;92939.44;5112911;28;20032;-44
2021/03/10 09:52:35;;;;;;;1.30;0.60;;;;;;;3.23;76.35;92927.53;5112104;28;20020;-45
2021/03/10 09:55:01;;;;;;;0.80;0.80;;;;;;;3.31;75.66;92947.53;5112900;28;20522;-46
2021/03/10 09:57:28;;;;;;;1.10;0.73;;;;;;;3.18;74.88;92936.50;5112738;28;20032;-44
2021/03/10 09:59:57;;;;;;;0.35;0.35;;;;;;;3.01;75.17;92917.63;5112815;28;20034;-45
2021/03/10 10:02:23;;;;;;;;;;;;;;;3.02;74.46;92928.00;5112986;28;20030;-44
2021/03/10 10:05:21;;;;;;;0.40;0.40;;;;;;;2.79;74.94;92929.50;5112532;28;19908;-44
2021/03/10 10:07:47;;;;;;;0.30;0.30;;;;;;;2.90;75.17;92937.53;5078440;28;20105;-46
2021/03/10 10:10:12;;;;;;;0.32;0.32;;;;;;;2.87;74.73;92935.09;5112574;28;20044;-44
2021/03/10 10:12:46;;;;;;;0.63;0.63;;;;;;;2.77;74.44;92929.25;5112597;28;20023;-44
2021/03/10 10:15:12;;;;;;;0.57;0.57;;;;;;;2.76;75.30;92935.22;5112386;28;20019;-43
2021/03/10 10:17:41;;;;;;;3.60;0.98;;;;;;;2.87;75.32;92929.66;5094268;28;20432;-45
2021/03/10 10:20:07;;;;;;;0.68;0.68;;;;;;;2.74;75.08;92935.00;5112469;28;20068;-45
2021/03/10 10:22:32;;;;;;;0.93;0.93;;;;;;;2.75;74.54;92947.38;5112357;28;20027;-44
2021/03/10 10:24:58;;;;;;;0.70;0.70;;;;;;;2.84;76.07;92944.28;5112479;28;20027;-47
2021/03/10 10:27:23;;;;;;;2.47;1.80;;;;;;;2.87;75.16;92946.00;5112328;28;20050;-44
2021/03/10 10:29:48;;;;;;;1.27;0.85;;;;;;;2.65;75.33;92932.59;5112258;28;20016;-45
2021/03/10 10:32:14;;;;;;;0.57;0.57;;;;;;;2.69;76.11;92924.88;5112156;28;20484;-44
2021/03/10 10:34:39;;;;;;;5.78;2.47;;;;;;;2.80;76.68;92924.75;5112238;28;20015;-45
2021/03/10 10:37:05;;;;;;;0.98;0.98;;;;;;;3.02;75.88;92922.56;5112041;28;20024;-44
2021/03/10 10:39:30;;;;;;;0.47;0.47;;;;;;;2.99;75.08;92920.09;5112151;28;20015;-44
2021/03/10 10:41:56;;;;;;;1.40;0.73;;;;;;;2.99;75.93;92914.63;5112049;28;20015;-44
2021/03/10 10:44:21;;;;;;;0.68;0.50;;;;;;;2.93;74.40;92912.00;5111872;28;20023;-43
2021/03/10 10:46:47;;;;;;;0.35;0.35;;;;;;;2.93;74.78;92914.72;5111973;28;20015;-45
2021/03/10 10:49:12;;;;;;;0.40;0.40;;;;;;;2.97;74.56;92917.88;5112029;28;20031;-43
2021/03/10 10:51:37;;;;;;;0.95;0.57;;;;;;;2.90;74.42;92925.91;5111956;28;20035;-43
2021/03/10 10:54:03;;;;;;;0.30;0.30;;;;;;;2.89;74.16;92927.91;5111889;28;20023;-44
2021/03/10 10:56:28;;;;;;;0.40;0.40;;;;;;;2.81;74.19;92923.53;5112058;28;20031;-43
2021/03/10 10:58:54;;;;;;;0.30;0.30;;;;;;;2.76;73.23;92927.03;5111920;28;20019;-43
2021/03/10 11:01:19;;;;;;;0.65;0.65;;;;;;;2.53;73.89;92936.69;5111913;28;20102;-44
2021/03/10 11:03:45;;;;;;;0.55;0.55;;;;;;;2.55;73.96;92936.91;5112321;28;20031;-45
2021/03/10 11:06:10;;;;;;;1.65;0.50;;;;;;;2.47;74.25;92920.38;5116138;28;20020;-43
2021/03/10 11:08:35;;;;;;;0.28;0.28;;;;;;;2.32;74.95;92911.13;5116123;28;20026;-43
2021/03/10 11:11:01;;;;;;;0.50;0.50;;;;;;;2.43;75.42;92917.19;5115981;28;20034;-44
2021/03/10 11:13:26;;;;;;;0.40;0.40;;;;;;;2.35;75.25;92915.53;5115892;28;20020;-44
2021/03/10 11:15:52;;;;;;;0.32;0.30;;;;;;;2.37;75.03;92911.06;5114454;28;20030;-44
2021/03/10 11:18:17;;;;;;;0.82;0.60;;;;;;;2.41;74.92;92897.16;5115910;28;20016;-44
2021/03/10 11:20:42;;;;;;;0.43;0.43;;;;;;;2.30;75.01;92887.09;5115801;28;20094;-45
2021/03/10 11:23:08;;;;;;;0.32;0.32;;;;;;;2.25;75.63;92891.34;5115795;28;20483;-44
2021/03/10 11:25:33;;;;;;;1.88;1.75;;;;;;;2.32;76.20;92886.59;5115763;28;20064;-44
2021/03/10 11:27:59;;;;;;;4.97;2.30;;;;;;;2.33;75.34;92883.38;5115759;28;20015;-45
2021/03/10 11:30:24;;;;;;;2.25;0.77;;;;;;;2.34;75.45;92884.13;5115744;28;20024;-43
2021/03/10 11:32:50;;;;;;;0.38;0.38;;;;;;;2.28;76.42;92889.59;5115647;28;20054;-43
2021/03/10 11:35:16;;;;;;;5.32;1.77;;;;;;;2.38;75.61;92882.59;5115604;28;20019;-44
2021/03/10 11:37:41;;;;;;;0.77;0.77;;;;;;;2.34;75.46;92887.56;5115493;28;20023;-44
2021/03/10 11:40:08;;;;;;;7.55;2.75;;;;;;;2.16;76.29;92882.78;5115597;28;20024;-44
2021/03/10 11:42:33;;;;;;;4.57;3.67;;;;;;;2.24;75.77;92891.84;5115402;28;20068;-45
2021/03/10 11:44:58;;;;;;;0.90;0.90;;;;;;;2.23;75.39;92893.84;5115216;28;20040;-46
2021/03/10 11:47:24;;;;;;;1.10;1.00;;;;;;;2.26;75.25;92890.09;5115401;28;20019;-44